Time;durP1;ratioP1;P1;durP2;ratioP2;P2;SDS_P1;SDS_P2;PMS_P1;PMS_P2;Temp;Humidity;BMP_temperature;BMP_pressure;BME280_temperature;BME280_humidity;BME280_pressure;Samples;Min_cycle;Max_cycle;Signal;HPM_P1;HPM_P2
2023/07/16 00:00:30;;;;;;;10.93;7.90;;;640.10;2432.00;;;;;;5086927;28;20431;-74
2023/07/16 00:02:56;;;;;;;11.20;9.18;;;640.00;2432.00;;;;;;5086675;28;20432;-70
2023/07/16 00:05:22;;;;;;;12.18;8.40;;;640.00;2432.00;;;;;;5079911;28;20059;-71
2023/07/16 00:07:47;;;;;;;13.90;8.40;;;615.30;2432.00;;;;;;5084784;28;20127;-75
2023/07/16 00:10:13;;;;;;;10.85;8.73;;;615.30;2432.00;;;;;;5086125;28;20813;-77
2023/07/16 00:12:39;;;;;;;14.13;8.73;;;640.10;2432.00;;;;;;5081848;28;20082;-73
2023/07/16 00:15:06;;;;;;;14.23;8.98;;;640.10;2432.00;;;;;;5087124;28;20032;-72
2023/07/16 00:17:33;;;;;;;12.63;8.45;;;640.10;2432.00;;;;;;5089166;28;20074;-71
2023/07/16 00:19:59;;;;;;;14.63;8.25;;;615.30;2432.00;;;;;;5090009;28;20020;-73
2023/07/16 00:22:24;;;;;;;11.65;8.20;;;615.20;2432.00;;;;;;5081757;28;20028;-71
2023/07/16 00:24:50;;;;;;;12.70;8.55;;;615.20;2432.00;;;;;;5084748;28;20020;-70
2023/07/16 00:27:16;;;;;;;11.15;8.20;;;615.10;2432.00;;;;;;5084008;28;20056;-75
2023/07/16 00:29:41;;;;;;;10.98;7.70;;;615.20;2432.00;;;;;;5082690;28;20041;-75
2023/07/16 00:32:07;;;;;;;13.80;8.80;;;615.30;2432.00;;;;;;5090486;28;20027;-71
2023/07/16 00:34:33;;;;;;;15.38;9.15;;;615.30;2432.00;;;;;;5088664;28;20044;-71
2023/07/16 00:37:01;;;;;;;10.30;8.30;;;615.30;2432.00;;;;;;5080088;28;20032;-76
2023/07/16 00:39:30;;;;;;;12.38;8.13;;;615.10;2432.00;;;;;;5087425;28;20042;-73
2023/07/16 00:41:56;;;;;;;10.77;8.10;;;615.10;2432.00;;;;;;5086107;28;20028;-76
2023/07/16 00:44:22;;;;;;;12.95;8.88;;;615.10;2432.00;;;;;;5082708;28;20427;-75
2023/07/16 00:46:49;;;;;;;11.25;8.65;;;615.00;2432.00;;;;;;5080134;28;20056;-74
2023/07/16 00:49:15;;;;;;;11.02;8.10;;;614.90;2432.00;;;;;;5078473;28;20059;-75
2023/07/16 00:51:42;;;;;;;10.55;8.90;;;614.90;2432.00;;;;;;5085425;28;20017;-74
2023/07/16 00:54:08;;;;;;;13.05;8.05;;;614.90;2432.00;;;;;;5075443;28;20067;-73
2023/07/16 00:56:35;;;;;;;10.32;8.00;;;614.90;2432.00;;;;;;5084526;28;20060;-77
2023/07/16 00:59:00;;;;;;;11.20;8.07;;;614.80;2432.00;;;;;;5079008;28;20052;-71
2023/07/16 01:01:26;;;;;;;11.50;8.85;;;614.90;2432.00;;;;;;5083071;28;20020;-73
2023/07/16 01:03:52;;;;;;;11.38;8.50;;;614.80;2432.00;;;;;;5080747;28;20081;-76
2023/07/16 01:06:38;;;;;;;13.85;8.60;;;614.80;2432.00;;;;;;5078971;28;20032;-72
2023/07/16 01:09:07;;;;;;;11.98;8.38;;;614.90;2432.00;;;;;;5085509;28;20109;-76
2023/07/16 01:11:35;;;;;;;11.95;8.50;;;614.90;2432.00;;;;;;5084679;28;20109;-76
2023/07/16 01:14:01;;;;;;;11.65;8.77;;;614.90;2432.00;;;;;;5083208;28;20453;-74
2023/07/16 01:16:28;;;;;;;14.52;9.20;;;614.80;2432.00;;;;;;5079012;28;20389;-75
2023/07/16 01:18:53;;;;;;;11.00;9.07;;;614.80;2432.00;;;;;;5087626;28;20039;-76
2023/07/16 01:21:22;;;;;;;11.57;9.15;;;614.90;2432.00;;;;;;5081109;28;20028;-71
2023/07/16 01:24:01;;;;;;;12.43;9.75;;;615.00;2432.00;;;;;;5080397;28;20020;-77
2023/07/16 01:26:45;;;;;;;12.15;9.63;;;615.00;2432.00;;;;;;5086960;28;20029;-73
2023/07/16 01:29:41;;;;;;;15.60;9.13;;;614.80;2432.00;;;;;;5083629;28;20032;-71
2023/07/16 01:32:08;;;;;;;15.15;10.45;;;614.70;2432.00;;;;;;5088786;28;20030;-73
2023/07/16 01:34:36;;;;;;;13.15;9.75;;;614.60;2432.00;;;;;;5079753;28;20024;-71
2023/07/16 01:37:03;;;;;;;16.33;10.50;;;614.60;2432.00;;;;;;5076438;28;20076;-76
2023/07/16 01:39:30;;;;;;;14.25;9.93;;;614.60;2432.00;;;;;;5087386;28;20125;-76
2023/07/16 01:41:56;;;;;;;16.23;9.90;;;614.60;2432.00;;;;;;5083935;28;20032;-73
2023/07/16 01:44:22;;;;;;;13.15;10.23;;;614.60;2432.00;;;;;;5079235;28;20025;-73
2023/07/16 01:47:35;;;;;;;16.17;11.27;;;614.40;2432.00;;;;;;5078673;28;20492;-71
2023/07/16 01:50:01;;;;;;;20.33;11.75;;;614.40;2432.00;;;;;;5039532;28;20033;-72
2023/07/16 01:52:26;;;;;;;18.75;11.88;;;589.70;2432.00;;;;;;5040218;28;20115;-71
2023/07/16 01:54:52;;;;;;;19.90;12.68;;;589.70;2432.00;;;;;;5042039;28;20065;-73
2023/07/16 01:57:18;;;;;;;27.02;12.70;;;589.70;2432.00;;;;;;5031376;28;20124;-72
2023/07/16 01:59:44;;;;;;;20.83;12.52;;;614.40;2432.00;;;;;;5039349;28;20045;-78
2023/07/16 02:02:10;;;;;;;19.75;12.30;;;589.70;2432.00;;;;;;5036595;28;20061;-72
2023/07/16 02:04:36;;;;;;;18.55;12.15;;;589.70;2432.00;;;;;;5030232;28;20029;-75
2023/07/16 02:07:01;;;;;;;19.98;11.30;;;589.70;2432.00;;;;;;5034716;28;20399;-71
2023/07/16 02:09:28;;;;;;;17.40;12.25;;;589.70;2432.00;;;;;;5022242;28;20068;-73
2023/07/16 02:11:54;;;;;;;19.67;12.52;;;589.70;2432.00;;;;;;5042084;28;20053;-74
2023/07/16 02:14:20;;;;;;;15.48;11.02;;;589.70;2432.00;;;;;;5035586;28;20056;-71
2023/07/16 02:16:45;;;;;;;16.67;11.65;;;614.40;2432.00;;;;;;5035573;28;20036;-73
2023/07/16 02:19:11;;;;;;;18.63;11.63;;;614.50;2432.00;;;;;;5026607;28;20053;-74
2023/07/16 02:21:37;;;;;;;16.88;11.48;;;614.50;2432.00;;;;;;5041905;28;20084;-74
2023/07/16 02:24:03;;;;;;;15.75;12.18;;;614.60;2432.00;;;;;;5034365;28;20669;-71
2023/07/16 02:26:28;;;;;;;19.35;12.05;;;614.60;2432.00;;;;;;5067397;28;20033;-70
2023/07/16 02:28:54;;;;;;;18.10;12.73;;;614.60;2432.00;;;;;;5073141;28;20024;-72
2023/07/16 02:31:20;;;;;;;25.30;13.15;;;614.50;2432.00;;;;;;5073060;28;20021;-77
2023/07/16 02:33:45;;;;;;;21.42;12.90;;;614.40;2432.00;;;;;;5072957;28;20125;-77
2023/07/16 02:36:11;;;;;;;18.65;13.05;;;589.70;2432.00;;;;;;5072797;28;20047;-74
2023/07/16 02:38:37;;;;;;;19.30;13.18;;;589.70;2432.00;;;;;;5072779;28;20041;-77
2023/07/16 02:41:02;;;;;;;18.88;12.63;;;589.60;2432.00;;;;;;5071772;28;20082;-77
2023/07/16 02:43:28;;;;;;;21.67;12.93;;;589.50;2432.00;;;;;;5072761;28;20497;-75
2023/07/16 02:45:54;;;;;;;20.27;13.75;;;589.50;2432.00;;;;;;5071194;28;20086;-77
2023/07/16 02:48:19;;;;;;;18.48;12.65;;;589.60;2432.00;;;;;;5072819;28;20035;-80
2023/07/16 02:50:45;;;;;;;20.73;12.55;;;589.60;2432.00;;;;;;5072740;28;20470;-76
2023/07/16 02:53:11;;;;;;;20.77;11.77;;;589.50;2432.00;;;;;;5072688;28;20020;-77
2023/07/16 02:55:37;;;;;;;21.42;12.55;;;589.40;2432.00;;;;;;5074015;28;20103;-73
2023/07/16 02:58:04;;;;;;;19.38;12.38;;;589.40;2432.00;;;;;;5076403;28;20033;-75
2023/07/16 03:00:31;;;;;;;20.65;13.70;;;589.30;2432.00;;;;;;5079405;28;20462;-70
2023/07/16 03:02:58;;;;;;;24.65;13.38;;;589.30;2432.00;;;;;;5096534;28;20016;-78
2023/07/16 03:05:24;;;;;;;18.80;12.05;;;589.30;2432.00;;;;;;5096253;28;20485;-74
2023/07/16 03:07:50;;;;;;;15.43;12.32;;;589.30;2432.00;;;;;;5096640;28;20047;-79
2023/07/16 03:10:16;;;;;;;17.10;13.73;;;589.20;2432.00;;;;;;5096649;28;20028;-78
2023/07/16 03:12:41;;;;;;;17.88;12.50;;;589.20;2432.00;;;;;;5107957;28;20028;-74
2023/07/16 03:15:08;;;;;;;25.08;13.90;;;589.20;2432.00;;;;;;5099008;28;20032;-78
2023/07/16 03:17:33;;;;;;;22.88;12.98;;;589.30;2432.00;;;;;;5096776;28;20373;-76
2023/07/16 03:19:59;;;;;;;18.15;12.10;;;589.30;2432.00;;;;;;5108359;28;20094;-78
2023/07/16 03:22:25;;;;;;;16.23;12.18;;;589.20;2432.00;;;;;;5097849;28;20465;-80
2023/07/16 03:24:51;;;;;;;19.13;12.32;;;589.20;2432.00;;;;;;5095000;28;20016;-74
2023/07/16 03:27:17;;;;;;;20.00;14.30;;;589.30;2432.00;;;;;;5095163;28;20024;-71
2023/07/16 03:29:42;;;;;;;19.63;14.18;;;589.30;2432.00;;;;;;5097192;28;20417;-75
2023/07/16 03:32:08;;;;;;;21.83;12.98;;;589.30;2432.00;;;;;;5092405;28;20038;-76
2023/07/16 03:34:34;;;;;;;25.67;14.60;;;589.30;2432.00;;;;;;5094710;28;20434;-72
2023/07/16 03:36:59;;;;;;;23.33;13.32;;;589.30;2432.00;;;;;;5094887;28;20040;-73
2023/07/16 03:39:25;;;;;;;23.50;14.40;;;589.50;2432.00;;;;;;5098173;28;20024;-76
2023/07/16 03:41:51;;;;;;;29.30;14.73;;;589.40;2432.00;;;;;;5095183;28;20032;-73
2023/07/16 03:44:16;;;;;;;21.58;14.63;;;589.40;2432.00;;;;;;5095204;28;20020;-74
2023/07/16 03:46:42;;;;;;;21.17;14.98;;;589.50;2432.00;;;;;;5095257;28;20492;-73
2023/07/16 03:49:08;;;;;;;20.50;14.25;;;589.50;2432.00;;;;;;5094986;28;20072;-80
2023/07/16 03:51:34;;;;;;;24.40;14.75;;;589.50;2432.00;;;;;;5098535;28;20023;-72
2023/07/16 03:54:00;;;;;;;21.52;15.25;;;589.50;2432.00;;;;;;5114363;28;20016;-73
2023/07/16 03:56:26;;;;;;;23.60;14.52;;;589.60;2432.00;;;;;;5099233;28;20032;-75
2023/07/16 03:58:51;;;;;;;20.20;14.95;;;589.60;2432.00;;;;;;5106609;28;20983;-78
2023/07/16 04:01:17;;;;;;;22.38;16.85;;;589.60;2432.00;;;;;;5106956;28;20021;-75
2023/07/16 04:03:43;;;;;;;21.38;14.85;;;589.50;2432.00;;;;;;5098370;28;20028;-77
2023/07/16 04:06:10;;;;;;;23.17;15.38;;;589.70;2432.00;;;;;;5096596;28;20054;-74
2023/07/16 04:08:36;;;;;;;21.48;15.20;;;589.70;2432.00;;;;;;5094396;28;20025;-77
2023/07/16 04:11:03;;;;;;;21.75;15.43;;;589.70;2432.00;;;;;;5092153;28;20028;-80
2023/07/16 04:13:29;;;;;;;26.75;15.63;;;589.70;2432.00;;;;;;5095760;28;20041;-77
2023/07/16 04:15:57;;;;;;;20.90;14.32;;;614.40;2432.00;;;;;;5104364;28;20536;-71
2023/07/16 04:18:23;;;;;;;23.30;15.68;;;614.40;2432.00;;;;;;5093861;28;20122;-80
2023/07/16 04:20:49;;;;;;;19.80;16.05;;;614.50;2432.00;;;;;;5094090;28;20031;-75
2023/07/16 04:23:15;;;;;;;20.00;14.65;;;614.60;2432.00;;;;;;5096570;28;20028;-80
2023/07/16 04:25:40;;;;;;;21.73;16.00;;;614.70;2432.00;;;;;;5093902;28;20111;-75
2023/07/16 04:28:06;;;;;;;25.23;15.63;;;614.70;2432.00;;;;;;5099648;28;20038;-73
2023/07/16 04:30:32;;;;;;;21.52;14.90;;;614.80;2432.00;;;;;;5093951;28;20456;-80
2023/07/16 04:32:57;;;;;;;22.83;16.38;;;614.80;2432.00;;;;;;5093947;28;20043;-78
2023/07/16 04:35:23;;;;;;;21.42;14.85;;;614.80;2432.00;;;;;;5093468;28;20030;-78
2023/07/16 04:37:49;;;;;;;20.73;17.45;;;614.90;2432.00;;;;;;5093913;28;20032;-81
2023/07/16 04:40:15;;;;;;;23.00;16.92;;;615.00;2432.00;;;;;;5096059;28;20396;-75
2023/07/16 04:42:40;;;;;;;19.38;14.75;;;615.10;2432.00;;;;;;5091500;28;20031;-79
2023/07/16 04:45:06;;;;;;;17.85;14.60;;;615.20;2432.00;;;;;;5092039;28;20030;-76
2023/07/16 04:47:32;;;;;;;20.20;15.50;;;615.30;2432.00;;;;;;5093496;28;20016;-79
2023/07/16 04:49:59;;;;;;;17.70;14.90;;;615.30;2432.00;;;;;;5093224;28;20541;-73
2023/07/16 04:52:24;;;;;;;26.27;16.17;;;640.00;2432.00;;;;;;5093912;28;20393;-72
2023/07/16 04:54:50;;;;;;;21.45;14.30;;;640.00;2432.00;;;;;;5096292;28;20025;-78
2023/07/16 04:57:16;;;;;;;18.13;14.82;;;640.10;2432.00;;;;;;5087944;28;20040;-72
2023/07/16 04:59:42;;;;;;;21.17;15.18;;;640.20;2432.00;;;;;;5082680;28;20106;-73
2023/07/16 05:02:07;;;;;;;19.65;14.45;;;640.30;2432.00;;;;;;5081684;28;20039;-72
2023/07/16 05:04:34;;;;;;;16.77;13.07;;;640.40;2432.00;;;;;;5074853;28;20028;-70
2023/07/16 05:07:02;;;;;;;20.17;13.90;;;640.30;2432.00;;;;;;5086488;28;20097;-71
2023/07/16 05:09:28;;;;;;;16.88;14.02;;;640.50;2432.00;;;;;;5084846;28;20032;-70
2023/07/16 05:11:53;;;;;;;19.52;13.25;;;640.40;2432.00;;;;;;5077637;28;20381;-71
2023/07/16 05:14:19;;;;;;;16.58;12.98;;;640.60;2432.00;;;;;;5079922;28;20032;-75
2023/07/16 05:16:45;;;;;;;22.02;13.80;;;640.60;2432.00;;;;;;5076067;28;20028;-71
2023/07/16 05:19:10;;;;;;;16.48;12.85;;;640.60;2432.00;;;;;;5077693;28;20111;-73
2023/07/16 05:21:36;;;;;;;17.50;13.73;;;640.90;2432.00;;;;;;5077051;28;20363;-73
2023/07/16 05:24:02;;;;;;;18.23;12.70;;;640.90;2432.00;;;;;;5085061;28;20024;-77
2023/07/16 05:26:28;;;;;;;15.55;13.18;;;640.90;2432.00;;;;;;5087147;28;20047;-72
2023/07/16 05:28:54;;;;;;;16.48;12.25;;;665.60;2432.00;;;;;;5079892;28;20441;-75
2023/07/16 05:31:19;;;;;;;15.80;11.77;;;665.60;2432.00;;;;;;5088442;28;20020;-75
2023/07/16 05:33:45;;;;;;;13.35;11.25;;;665.70;2432.00;;;;;;5078430;28;20027;-72
2023/07/16 05:36:11;;;;;;;19.73;13.32;;;665.80;2432.00;;;;;;5081349;28;20428;-72
2023/07/16 05:38:36;;;;;;;17.27;12.77;;;665.90;2432.00;;;;;;5086651;28;20051;-76
2023/07/16 05:41:03;;;;;;;14.70;11.60;;;665.90;2432.00;;;;;;5086425;28;20028;-78
2023/07/16 05:43:29;;;;;;;16.35;11.85;;;666.00;2432.00;;;;;;5081544;28;20044;-72
2023/07/16 05:45:55;;;;;;;16.38;11.55;;;666.20;2432.00;;;;;;5083501;28;20031;-71
2023/07/16 05:48:20;;;;;;;13.40;11.05;;;666.20;2432.00;;;;;;5077348;28;20024;-72
2023/07/16 05:50:46;;;;;;;14.55;11.32;;;666.30;2432.00;;;;;;5077787;28;20043;-73
2023/07/16 05:53:13;;;;;;;20.98;12.10;;;666.50;2432.00;;;;;;5083749;28;20109;-72
2023/07/16 05:55:42;;;;;;;16.58;12.43;;;691.20;2432.00;;;;;;5082115;28;20393;-74
2023/07/16 05:58:08;;;;;;;16.52;11.25;;;;;;;;;;5079584;28;20119;-72
2023/07/16 06:00:35;;;;;;;12.73;10.95;;;;;;;;;;5078437;28;20070;-73
2023/07/16 06:03:03;;;;;;;14.52;10.90;;;;;;;;;;5076839;28;20020;-75
2023/07/16 06:05:32;;;;;;;16.50;11.20;;;691.90;2432.00;;;;;;5075564;28;20428;-70
2023/07/16 06:07:58;;;;;;;15.57;10.35;;;691.90;2432.00;;;;;;5078420;28;20090;-72
2023/07/16 06:10:24;;;;;;;20.38;9.95;;;692.10;2432.00;;;;;;5079427;28;20059;-75
2023/07/16 06:12:49;;;;;;;10.40;8.80;;;692.10;2432.00;;;;;;5083949;28;20447;-70
2023/07/16 06:15:15;;;;;;;13.20;9.52;;;716.90;2432.00;;;;;;5080249;28;20028;-73
2023/07/16 06:17:41;;;;;;;14.10;8.88;;;717.10;2432.00;;;;;;5088678;28;20036;-73
2023/07/16 06:20:08;;;;;;;11.25;8.30;;;717.10;2432.00;;;;;;5091055;28;20016;-70
2023/07/16 06:22:33;;;;;;;13.75;7.97;;;717.20;2432.00;;;;;;5078830;28;20024;-71
2023/07/16 06:24:59;;;;;;;11.20;7.50;;;717.30;2432.00;;;;;;5082412;28;20028;-73
2023/07/16 06:27:25;;;;;;;12.10;7.78;;;717.40;2432.00;;;;;;5075359;28;20382;-75
2023/07/16 06:29:51;;;;;;;12.65;7.90;;;717.50;2432.00;;;;;;5084076;28;20033;-73
2023/07/16 06:32:17;;;;;;;15.48;8.88;;;717.70;2432.00;;;;;;5084016;28;20508;-72
2023/07/16 06:34:42;;;;;;;9.95;6.80;;;742.40;2432.00;;;;;;5087410;28;20057;-73
2023/07/16 06:37:08;;;;;;;10.75;7.22;;;742.40;2432.00;;;;;;5080988;28;20040;-73
2023/07/16 06:39:34;;;;;;;9.80;6.90;;;742.50;2432.00;;;;;;5089038;28;20119;-79
2023/07/16 06:42:00;;;;;;;13.15;7.30;;;742.60;2432.00;;;;;;5081799;28;20466;-74
2023/07/16 06:44:25;;;;;;;11.65;7.40;;;742.70;2432.00;;;;;;5083816;28;20501;-73
2023/07/16 06:46:51;;;;;;;11.43;7.38;;;742.90;2432.00;;;;;;5083122;28;20028;-72
2023/07/16 06:49:17;;;;;;;11.45;7.22;;;743.00;2432.00;;;;;;5083579;28;20032;-71
2023/07/16 06:51:42;;;;;;;10.02;7.07;;;743.00;2432.00;;;;;;5086732;28;20375;-74
2023/07/16 06:54:09;;;;;;;10.25;7.90;;;743.10;2432.00;;;;;;5081386;28;20420;-72
2023/07/16 06:56:34;;;;;;;8.00;7.00;;;743.20;2432.00;;;;;;5085827;28;20051;-72
2023/07/16 06:59:00;;;;;;;20.08;7.13;;;743.30;2432.00;;;;;;5082831;28;20490;-72
2023/07/16 07:01:27;;;;;;;16.23;7.13;;;768.10;2432.00;;;;;;5084690;28;20082;-72
2023/07/16 07:03:53;;;;;;;9.25;6.45;;;768.10;2432.00;;;;;;5085999;28;20301;-72
2023/07/16 07:06:19;;;;;;;8.07;5.93;;;793.80;2432.00;;;;;;5087272;28;20040;-72
2023/07/16 07:08:45;;;;;;;7.68;6.03;;;819.30;2227.20;;;;;;5085905;28;20042;-72
2023/07/16 07:11:10;;;;;;;9.27;6.47;;;844.90;2124.80;;;;;;5083187;28;20393;-72
2023/07/16 07:13:36;;;;;;;8.15;5.35;;;;;;;;;;5088754;28;20088;-71
2023/07/16 07:16:02;;;;;;;11.35;5.20;;;870.50;1868.80;;;;;;5080907;28;20033;-73
2023/07/16 07:18:28;;;;;;;12.35;6.13;;;870.60;1817.60;;;;;;5085628;28;20038;-73
2023/07/16 07:20:53;;;;;;;9.20;5.38;;;870.70;1792.00;;;;;;5079564;28;20021;-72
2023/07/16 07:23:19;;;;;;;8.20;4.78;;;870.90;1792.00;;;;;;5082295;28;20085;-72
2023/07/16 07:25:54;;;;;;;8.90;5.43;;;871.10;1740.80;;;;;;5087668;28;20036;-72
2023/07/16 07:28:20;;;;;;;7.93;5.55;;;870.50;1740.80;;;;;;5083698;28;20440;-73
2023/07/16 07:30:46;;;;;;;10.70;5.82;;;871.00;1715.20;;;;;;5082211;28;20417;-74
2023/07/16 07:33:12;;;;;;;6.65;5.57;;;871.30;1689.60;;;;;;5087383;28;20475;-73
2023/07/16 07:35:38;;;;;;;8.50;5.78;;;;;;;;;;5086433;28;20048;-72
2023/07/16 07:38:04;;;;;;;9.88;5.53;;;896.50;1638.40;;;;;;5077991;28;20059;-73
2023/07/16 07:40:29;;;;;;;9.85;6.75;;;896.80;1638.40;;;;;;5084100;28;20474;-74
2023/07/16 07:42:55;;;;;;;9.02;6.15;;;896.80;1638.40;;;;;;5079816;28;20360;-73
2023/07/16 07:45:21;;;;;;;7.47;5.68;;;896.60;1612.80;;;;;;5086591;28;20359;-72
2023/07/16 07:47:47;;;;;;;8.40;5.80;;;921.60;1612.80;;;;;;5085745;28;20031;-71
2023/07/16 07:50:12;;;;;;;8.25;5.80;;;921.60;1638.40;;;;;;5076014;28;20012;-73
2023/07/16 07:52:38;;;;;;;8.02;5.65;;;896.50;1638.40;;;;;;5083014;28;20482;-72
2023/07/16 07:55:04;;;;;;;9.52;6.00;;;921.80;1587.20;;;;;;5082506;28;20056;-72
2023/07/16 07:57:30;;;;;;;14.18;6.65;;;921.90;1587.20;;;;;;5084330;28;20055;-74
2023/07/16 07:59:59;;;;;;;9.32;6.10;;;922.50;1587.20;;;;;;5079326;28;20032;-74
2023/07/16 08:02:25;;;;;;;9.38;5.40;;;922.00;1561.60;;;;;;5083133;28;20028;-71
2023/07/16 08:04:55;;;;;;;9.02;6.43;;;921.90;1587.20;;;;;;5081612;28;20020;-74
2023/07/16 08:07:25;;;;;;;9.32;6.05;;;922.20;1561.60;;;;;;5078223;28;20101;-73
2023/07/16 08:09:51;;;;;;;9.23;6.35;;;921.70;1587.20;;;;;;5080582;28;20104;-73
2023/07/16 08:12:17;;;;;;;14.85;5.90;;;922.00;1587.20;;;;;;5078577;28;20157;-73
2023/07/16 08:14:42;;;;;;;11.20;5.47;;;922.00;1587.20;;;;;;5087395;28;20020;-73
2023/07/16 08:17:08;;;;;;;6.93;5.20;;;922.10;1561.60;;;;;;5082205;28;20032;-73
2023/07/16 08:19:34;;;;;;;11.80;5.75;;;921.80;1587.20;;;;;;5085227;28;20024;-79
2023/07/16 08:21:59;;;;;;;8.63;5.72;;;896.90;1561.60;;;;;;5084624;28;20027;-73
2023/07/16 08:24:25;;;;;;;8.98;5.95;;;922.00;1536.00;;;;;;5080437;28;20028;-76
2023/07/16 08:26:51;;;;;;;9.05;6.03;;;922.20;1561.60;;;;;;5088489;28;20565;-73
2023/07/16 08:29:17;;;;;;;12.48;6.65;;;922.50;1561.60;;;;;;5081697;28;20386;-80
2023/07/16 08:31:43;;;;;;;14.38;5.40;;;922.50;1510.40;;;;;;5073904;28;20043;-72
2023/07/16 08:34:08;;;;;;;7.85;5.63;;;922.00;1536.00;;;;;;5079873;28;20418;-74
2023/07/16 08:36:34;;;;;;;10.75;5.93;;;922.00;1510.40;;;;;;5083259;28;20848;-74
2023/07/16 08:39:00;;;;;;;7.75;6.15;;;922.00;1536.00;;;;;;5090484;28;20435;-76
2023/07/16 08:41:26;;;;;;;7.15;5.80;;;922.10;1536.00;;;;;;5080762;28;20070;-71
2023/07/16 08:43:52;;;;;;;11.35;6.85;;;921.70;1561.60;;;;;;5083284;28;20101;-80
2023/07/16 08:46:18;;;;;;;8.18;5.63;;;922.00;1587.20;;;;;;5081335;28;20486;-70
2023/07/16 08:48:45;;;;;;;7.53;5.05;;;922.20;1587.20;;;;;;5077556;28;20044;-76
2023/07/16 08:51:15;;;;;;;10.07;5.85;;;922.50;1510.40;;;;;;5082035;28;20024;-72
2023/07/16 08:53:41;;;;;;;8.52;5.80;;;922.50;1536.00;;;;;;5081111;28;20067;-73
2023/07/16 08:56:07;;;;;;;7.13;5.90;;;947.40;1510.40;;;;;;5081041;28;20504;-81
2023/07/16 08:58:32;;;;;;;7.15;5.90;;;947.80;1484.80;;;;;;5080544;28;20039;-72
2023/07/16 09:01:00;;;;;;;8.85;6.00;;;922.30;1484.80;;;;;;5079296;28;20494;-72
2023/07/16 09:03:26;;;;;;;7.63;5.65;;;922.30;1510.40;;;;;;5089231;28;20020;-74
2023/07/16 09:05:54;;;;;;;8.77;5.95;;;922.50;1510.40;;;;;;5076799;28;20047;-79
2023/07/16 09:08:19;;;;;;;7.60;5.88;;;948.10;1484.80;;;;;;5080025;28;20033;-81
2023/07/16 09:10:54;;;;;;;8.77;6.38;;;947.90;1459.20;;;;;;5078272;28;20051;-74
2023/07/16 09:13:19;;;;;;;7.68;5.93;;;972.90;1484.80;;;;;;5078722;28;20024;-77
2023/07/16 09:15:51;;;;;;;6.40;5.50;;;972.90;1484.80;;;;;;5077680;28;20036;-73
2023/07/16 09:18:23;;;;;;;8.93;6.82;;;972.90;1459.20;;;;;;5079530;28;20036;-72
2023/07/16 09:21:00;;;;;;;9.00;5.95;;;948.10;1433.60;;;;;;5079443;28;20035;-72
2023/07/16 09:23:29;;;;;;;6.57;5.85;;;948.10;1433.60;;;;;;5076514;28;20037;-70
2023/07/16 09:25:55;;;;;;;10.13;6.63;;;948.00;1510.40;;;;;;5091902;28;20473;-77
2023/07/16 09:28:21;;;;;;;12.57;6.95;;;948.10;1484.80;;;;;;5083844;28;20082;-71
2023/07/16 09:30:48;;;;;;;10.85;7.22;;;947.80;1510.40;;;;;;5082643;28;20066;-70
2023/07/16 09:33:16;;;;;;;14.05;6.78;;;947.90;1536.00;;;;;;5081238;28;20062;-71
2023/07/16 09:35:41;;;;;;;10.45;6.70;;;973.00;1510.40;;;;;;5078761;28;20059;-73
2023/07/16 09:38:12;;;;;;;13.23;6.82;;;973.20;1484.80;;;;;;5078021;28;20076;-71
2023/07/16 09:40:39;;;;;;;10.38;6.47;;;973.20;1510.40;;;;;;5079514;28;20077;-71
2023/07/16 09:43:06;;;;;;;12.30;6.80;;;973.50;1484.80;;;;;;5083930;28;20027;-71
2023/07/16 09:45:32;;;;;;;10.27;6.30;;;973.20;1484.80;;;;;;5082340;28;20032;-71
2023/07/16 09:47:58;;;;;;;10.82;5.82;;;973.30;1484.80;;;;;;5076357;28;20024;-76
2023/07/16 09:50:25;;;;;;;8.80;6.10;;;973.30;1459.20;;;;;;5078150;28;20032;-71
2023/07/16 09:52:51;;;;;;;8.10;6.40;;;973.30;1408.00;;;;;;5082183;28;20103;-77
2023/07/16 09:55:21;;;;;;;8.77;6.53;;;973.10;1433.60;;;;;;5081020;28;20023;-71
2023/07/16 09:57:48;;;;;;;8.57;6.72;;;973.20;1408.00;;;;;;5076969;28;20037;-78
2023/07/16 10:00:15;;;;;;;12.80;7.18;;;973.20;1433.60;;;;;;5078614;28;20028;-71
2023/07/16 10:02:41;;;;;;;9.07;7.07;;;973.70;1408.00;;;;;;5079439;28;20040;-71
2023/07/16 10:05:13;;;;;;;15.45;7.00;;;973.50;1382.40;;;;;;5085258;28;20028;-72
2023/07/16 10:07:40;;;;;;;11.98;6.95;;;998.40;1408.00;;;;;;5081229;28;20052;-79
2023/07/16 10:10:11;;;;;;;9.35;6.22;;;973.60;1382.40;;;;;;5079355;28;20039;-76
2023/07/16 10:12:38;;;;;;;7.78;6.38;;;973.60;1382.40;;;;;;5079685;28;20111;-71
2023/07/16 10:15:05;;;;;;;13.88;8.48;;;973.30;1408.00;;;;;;5076964;28;20385;-74
2023/07/16 10:17:32;;;;;;;8.73;7.13;;;998.40;1408.00;;;;;;5077339;28;20076;-76
2023/07/16 10:20:01;;;;;;;11.30;6.88;;;998.70;1382.40;;;;;;5083166;28;20057;-81
2023/07/16 10:22:48;;;;;;;10.52;6.82;;;998.90;1356.80;;;;;;5081161;28;20029;-81
2023/07/16 10:25:19;;;;;;;10.57;6.47;;;998.50;1382.40;;;;;;5080431;28;20026;-79
2023/07/16 10:27:50;;;;;;;11.75;6.72;;;998.90;1382.40;;;;;;5077517;28;20040;-73
2023/07/16 10:30:17;;;;;;;14.32;6.72;;;999.00;1331.20;;;;;;5086711;28;20493;-71
2023/07/16 10:32:43;;;;;;;8.27;5.65;;;998.90;1331.20;;;;;;5077190;28;20055;-78
2023/07/16 10:35:09;;;;;;;10.00;6.72;;;998.80;1331.20;;;;;;5083572;28;20029;-75
2023/07/16 10:37:36;;;;;;;9.82;6.30;;;1024.00;1305.60;;;;;;5074984;28;20036;-72
2023/07/16 10:40:03;;;;;;;10.45;6.63;;;999.10;1280.00;;;;;;5076314;28;20067;-72
2023/07/16 10:42:29;;;;;;;8.73;6.72;;;999.10;1305.60;;;;;;5081144;28;20026;-75
2023/07/16 10:44:59;;;;;;;10.55;7.20;;;1024.20;1331.20;;;;;;5078975;28;20024;-71
2023/07/16 10:47:33;;;;;;;11.50;7.38;;;1024.00;1305.60;;;;;;5077964;28;20103;-74
2023/07/16 10:49:59;;;;;;;9.25;7.13;;;999.20;1254.40;;;;;;5083061;28;20473;-71
2023/07/16 10:52:26;;;;;;;8.73;7.20;;;999.30;1331.20;;;;;;5073909;28;20500;-72
2023/07/16 10:54:54;;;;;;;9.85;7.28;;;998.80;1331.20;;;;;;5083451;28;20090;-71
2023/07/16 10:57:24;;;;;;;7.80;6.40;;;1024.10;1280.00;;;;;;5089616;28;20548;-72
2023/07/16 10:59:58;;;;;;;12.63;8.35;;;999.10;1280.00;;;;;;5083176;28;20378;-72
2023/07/16 11:02:25;;;;;;;10.40;6.35;;;999.20;1280.00;;;;;;5079670;28;20039;-71
2023/07/16 11:04:55;;;;;;;8.95;6.93;;;1024.20;1254.40;;;;;;5081543;28;20035;-72
2023/07/16 11:07:21;;;;;;;10.52;8.32;;;1049.60;1228.80;;;;;;5079028;28;20051;-76
2023/07/16 11:09:52;;;;;;;9.48;8.32;;;1024.20;1228.80;;;;;;5078400;28;20021;-75
2023/07/16 11:12:20;;;;;;;13.65;7.90;;;1024.20;1203.20;;;;;;5081193;28;20029;-75
2023/07/16 11:14:50;;;;;;;13.07;8.85;;;1024.40;1228.80;;;;;;5080842;28;20020;-73
2023/07/16 11:17:16;;;;;;;13.63;9.30;;;999.20;1203.20;;;;;;5079110;28;20035;-73
2023/07/16 11:19:46;;;;;;;12.00;8.82;;;998.80;1254.40;;;;;;5079911;28;20029;-77
2023/07/16 11:22:11;;;;;;;11.40;8.55;;;999.20;1305.60;;;;;;5084279;28;20027;-72
2023/07/16 11:24:43;;;;;;;13.98;8.95;;;999.30;1280.00;;;;;;5081265;28;20024;-72
2023/07/16 11:27:16;;;;;;;10.82;8.70;;;1024.50;1254.40;;;;;;5082507;28;20054;-78
2023/07/16 11:29:46;;;;;;;8.60;7.40;;;1024.00;1228.80;;;;;;5082195;28;20024;-75
2023/07/16 11:32:13;;;;;;;11.65;7.70;;;1024.30;1280.00;;;;;;5082474;28;20032;-74
2023/07/16 11:34:52;;;;;;;13.88;9.45;;;1024.70;1254.40;;;;;;5084107;28;20024;-71
2023/07/16 11:37:18;;;;;;;9.65;8.02;;;1024.40;1305.60;;;;;;5099371;28;20128;-71
2023/07/16 11:39:44;;;;;;;14.25;8.90;;;1024.40;1254.40;;;;;;5081745;28;20124;-75
2023/07/16 11:42:09;;;;;;;12.57;8.18;;;999.30;1280.00;;;;;;5078752;28;20020;-72
2023/07/16 11:44:35;;;;;;;11.60;8.10;;;999.10;1280.00;;;;;;5079370;28;20020;-71
2023/07/16 11:47:02;;;;;;;10.52;8.35;;;1024.40;1280.00;;;;;;5079807;28;20111;-78
2023/07/16 11:49:27;;;;;;;9.98;8.82;;;1049.80;1228.80;;;;;;5080187;28;20399;-74
2023/07/16 11:51:53;;;;;;;11.32;8.80;;;1024.40;1228.80;;;;;;5083240;28;20697;-72
2023/07/16 11:54:19;;;;;;;11.68;9.00;;;1024.50;1228.80;;;;;;5083181;28;20496;-79
2023/07/16 11:56:47;;;;;;;12.77;7.85;;;1024.20;1305.60;;;;;;5080941;28;20118;-74
2023/07/16 11:59:12;;;;;;;10.75;8.48;;;1024.40;1203.20;;;;;;5084098;28;20034;-71
2023/07/16 12:01:38;;;;;;;10.55;8.10;;;1024.60;1203.20;;;;;;5075473;28;20100;-71
2023/07/16 12:04:04;;;;;;;12.57;9.13;;;1024.50;1203.20;;;;;;5085224;28;20493;-74
2023/07/16 12:06:30;;;;;;;13.20;8.43;;;1024.60;1203.20;;;;;;5076938;28;21876;-74